createdAt,value
2022-10-22T00:01:13.989Z,6.93
2022-10-22T00:03:40.230Z,7.35
2022-10-22T00:06:06.594Z,6.85
2022-10-22T00:08:33.084Z,7.28
2022-10-22T00:10:59.464Z,7.63
2022-10-22T00:13:25.719Z,7.43
2022-10-22T00:15:52.072Z,7.05
2022-10-22T00:18:18.426Z,7.45
2022-10-22T00:20:44.662Z,7.05
2022-10-22T00:23:10.910Z,7.18
2022-10-22T00:25:37.184Z,7.68
2022-10-22T00:28:04.700Z,7.57
2022-10-22T00:30:30.981Z,7.35
2022-10-22T00:32:57.221Z,8.70
2022-10-22T00:35:23.512Z,7.22
2022-10-22T00:37:49.773Z,7.15
2022-10-22T00:40:16.025Z,7.97
2022-10-22T00:42:42.720Z,8.00
2022-10-22T00:45:09.356Z,7.97
2022-10-22T00:47:55.953Z,7.82
2022-10-22T00:50:42.545Z,7.18
2022-10-22T00:53:11.996Z,7.32
2022-10-22T00:55:38.862Z,7.10
2022-10-22T00:58:05.245Z,8.38
2022-10-22T01:00:31.697Z,7.03
2022-10-22T01:02:58.056Z,6.82
2022-10-22T01:05:27.428Z,7.20
2022-10-22T01:07:58.313Z,6.95
2022-10-22T01:10:43.525Z,7.00
2022-10-22T01:13:18.846Z,6.70
2022-10-22T01:15:52.388Z,6.13
2022-10-22T01:18:22.916Z,6.25
2022-10-22T01:21:08.137Z,7.03
2022-10-22T01:23:52.826Z,6.03
2022-10-22T01:26:25.110Z,6.35
2022-10-22T01:28:51.321Z,6.13
2022-10-22T01:31:18.045Z,7.10
2022-10-22T01:33:45.865Z,7.05
2022-10-22T01:36:12.849Z,6.18
2022-10-22T01:38:40.027Z,6.45
2022-10-22T01:41:07.010Z,6.28
2022-10-22T01:43:33.347Z,6.30
2022-10-22T01:46:01.958Z,6.35
2022-10-22T01:48:39.310Z,6.25
2022-10-22T01:51:24.127Z,6.47
2022-10-22T01:54:02.617Z,6.57
2022-10-22T01:56:31.852Z,6.45
2022-10-22T01:59:01.210Z,6.75
2022-10-22T02:01:46.234Z,6.50
2022-10-22T02:04:20.727Z,6.18
2022-10-22T02:06:47.713Z,6.60
2022-10-22T02:09:15.006Z,6.60
2022-10-22T02:11:42.416Z,6.65
2022-10-22T02:14:09.032Z,6.43
2022-10-22T02:16:37.765Z,6.43
2022-10-22T02:19:22.730Z,6.30
2022-10-22T02:21:49.244Z,6.47
2022-10-22T02:24:16.234Z,6.45
2022-10-22T02:26:48.481Z,6.72
2022-10-22T02:29:34.974Z,6.35
2022-10-22T02:32:02.524Z,6.03
2022-10-22T02:34:30.329Z,6.25
2022-10-22T02:36:57.045Z,6.38
2022-10-22T02:39:23.332Z,6.55
2022-10-22T02:41:49.564Z,6.63
2022-10-22T02:44:15.830Z,6.40
2022-10-22T02:46:43.223Z,5.70
2022-10-22T02:49:09.441Z,6.30
2022-10-22T02:51:35.731Z,6.13
2022-10-22T02:54:01.992Z,5.78
2022-10-22T02:56:28.231Z,5.65
2022-10-22T02:58:54.490Z,6.10
2022-10-22T03:01:21.050Z,6.40
2022-10-22T03:03:47.367Z,5.80
2022-10-22T03:06:13.948Z,6.15
2022-10-22T03:08:40.418Z,5.70
2022-10-22T03:11:06.728Z,6.40
2022-10-22T03:13:32.978Z,5.93
2022-10-22T03:15:59.227Z,6.03
2022-10-22T03:18:25.483Z,6.47
2022-10-22T03:20:59.310Z,6.13
2022-10-22T03:23:25.550Z,5.72
2022-10-22T03:25:51.820Z,6.05
2022-10-22T03:28:18.525Z,6.00
2022-10-22T03:30:44.885Z,5.93
2022-10-22T03:33:11.148Z,6.03
2022-10-22T03:35:40.617Z,7.28
2022-10-22T03:38:06.855Z,6.35
2022-10-22T03:40:36.337Z,6.38
2022-10-22T03:43:02.644Z,6.28
2022-10-22T03:45:28.956Z,6.32
2022-10-22T03:47:55.209Z,6.90
2022-10-22T03:50:21.454Z,6.13
2022-10-22T03:52:47.682Z,6.13
2022-10-22T03:55:14.013Z,6.65
2022-10-22T03:57:40.566Z,6.25
2022-10-22T04:00:07.350Z,6.10
2022-10-22T04:02:33.580Z,6.50
2022-10-22T04:04:59.912Z,6.40
2022-10-22T04:07:26.202Z,7.20
2022-10-22T04:09:52.421Z,6.90
2022-10-22T04:12:18.671Z,6.35
2022-10-22T04:14:44.913Z,6.85
2022-10-22T04:17:11.186Z,6.70
2022-10-22T04:19:37.458Z,6.35
2022-10-22T04:22:03.767Z,6.47
2022-10-22T04:24:31.065Z,7.32
2022-10-22T04:26:57.485Z,6.60
2022-10-22T04:29:24.224Z,6.97
2022-10-22T04:31:50.587Z,6.65
2022-10-22T04:34:16.861Z,6.90
2022-10-22T04:36:43.090Z,6.60
2022-10-22T04:39:09.440Z,7.43
2022-10-22T04:41:37.922Z,6.38
2022-10-22T04:44:04.485Z,7.03
2022-10-22T04:46:32.082Z,6.78
2022-10-22T04:48:58.637Z,7.05
2022-10-22T04:51:25.497Z,6.25
2022-10-22T04:53:51.839Z,7.03
2022-10-22T04:56:20.618Z,6.60
2022-10-22T04:58:48.515Z,6.70
2022-10-22T05:01:16.618Z,7.40
2022-10-22T05:03:46.068Z,6.93
2022-10-22T05:08:44.262Z,6.30
2022-10-22T05:11:14.709Z,6.95
2022-10-22T05:13:40.968Z,7.03
2022-10-22T05:16:07.463Z,6.65
2022-10-22T05:18:36.426Z,6.60
2022-10-22T05:21:03.231Z,6.97
2022-10-22T05:23:29.500Z,6.55
2022-10-22T05:25:55.984Z,7.57
2022-10-22T05:28:22.252Z,7.15
2022-10-22T05:30:55.874Z,6.57
2022-10-22T05:33:24.078Z,7.03
2022-10-22T05:35:50.573Z,6.55
2022-10-22T05:38:17.334Z,6.50
2022-10-22T05:40:43.573Z,6.50
2022-10-22T05:43:09.899Z,5.80
2022-10-22T05:45:36.868Z,5.57
2022-10-22T05:48:03.401Z,6.38
2022-10-22T05:50:29.713Z,6.45
2022-10-22T05:52:55.950Z,6.68
2022-10-22T05:55:22.246Z,6.47
2022-10-22T05:57:50.070Z,5.95
2022-10-22T06:00:16.820Z,6.68
2022-10-22T06:02:43.246Z,5.82
2022-10-22T06:05:09.534Z,5.63
2022-10-22T06:07:35.964Z,6.15
2022-10-22T06:10:02.263Z,5.85
2022-10-22T06:12:28.490Z,6.38
2022-10-22T06:14:54.749Z,6.72
2022-10-22T06:17:21.025Z,6.53
2022-10-22T06:19:47.264Z,6.93
2022-10-22T06:22:13.666Z,6.55
2022-10-22T06:24:41.655Z,5.68
2022-10-22T06:27:10.589Z,6.63
2022-10-22T06:29:36.871Z,5.90
2022-10-22T06:32:03.127Z,5.70
2022-10-22T06:34:29.364Z,6.10
2022-10-22T06:36:55.609Z,6.07
2022-10-22T06:39:21.889Z,5.90
2022-10-22T06:41:48.150Z,5.70
2022-10-22T06:44:15.610Z,5.88
2022-10-22T06:46:43.540Z,5.63
2022-10-22T06:49:12.215Z,5.40
2022-10-22T06:51:38.473Z,6.05
2022-10-22T06:54:04.805Z,5.72
2022-10-22T06:56:31.073Z,5.35
2022-10-22T06:58:58.081Z,5.68
2022-10-22T07:01:30.507Z,6.65
2022-10-22T07:03:57.070Z,6.43
2022-10-22T07:06:23.854Z,6.15
2022-10-22T07:08:50.649Z,6.07
2022-10-22T07:11:21.327Z,4.70
2022-10-22T07:13:47.721Z,6.10
2022-10-22T07:16:14.032Z,5.57
2022-10-22T07:18:40.960Z,4.70
2022-10-22T07:21:07.821Z,4.60
2022-10-22T07:23:34.071Z,4.85
2022-10-22T07:26:03.430Z,4.65
2022-10-22T07:28:29.972Z,4.70
2022-10-22T07:30:56.210Z,4.78
2022-10-22T07:33:22.429Z,4.53
2022-10-22T07:35:48.859Z,4.28
2022-10-22T07:38:15.086Z,4.00
2022-10-22T07:40:41.350Z,4.95
2022-10-22T07:43:07.666Z,4.50
2022-10-22T07:45:33.914Z,4.30
2022-10-22T07:48:00.561Z,3.88
2022-10-22T07:50:26.947Z,4.72
2022-10-22T07:52:54.857Z,3.80
2022-10-22T07:55:23.662Z,4.38
2022-10-22T07:57:49.901Z,4.32
2022-10-22T08:00:17.801Z,3.90
2022-10-22T08:02:44.835Z,4.57
2022-10-22T08:05:11.171Z,3.55
2022-10-22T08:07:37.451Z,3.83
2022-10-22T08:10:04.383Z,3.20
2022-10-22T08:12:30.632Z,3.33
2022-10-22T08:14:57.166Z,3.05
2022-10-22T08:17:23.444Z,2.78
2022-10-22T08:19:49.719Z,3.25
2022-10-22T08:22:15.961Z,2.30
2022-10-22T08:24:42.258Z,3.15
2022-10-22T08:27:08.499Z,2.55
2022-10-22T08:29:35.228Z,2.53
2022-10-22T08:32:03.906Z,2.60
2022-10-22T08:34:30.457Z,2.50
2022-10-22T08:36:56.705Z,2.88
2022-10-22T08:39:22.980Z,3.00
2022-10-22T08:42:08.214Z,2.70
2022-10-22T08:44:53.361Z,2.70
2022-10-22T08:47:22.743Z,2.70
2022-10-22T08:49:49.129Z,2.40
2022-10-22T08:52:19.776Z,2.70
2022-10-22T08:54:52.676Z,2.33
2022-10-22T08:57:25.703Z,2.30
2022-10-22T08:59:55.642Z,2.35
2022-10-22T09:02:28.108Z,2.50
2022-10-22T09:05:01.953Z,2.10
2022-10-22T09:07:28.192Z,2.83
2022-10-22T09:09:55.392Z,2.45
2022-10-22T09:12:22.308Z,2.55
2022-10-22T09:14:48.983Z,2.33
2022-10-22T09:17:20.689Z,2.65
2022-10-22T09:20:05.672Z,2.50
2022-10-22T09:25:21.604Z,2.50
2022-10-22T09:27:48.217Z,3.17
2022-10-22T09:30:18.436Z,2.92
2022-10-22T09:32:44.937Z,3.22
2022-10-22T09:35:12.784Z,2.40
2022-10-22T09:37:47.690Z,2.80
2022-10-22T09:40:15.023Z,2.20
2022-10-22T09:42:41.522Z,3.30
2022-10-22T09:45:15.123Z,3.15
2022-10-22T09:48:00.482Z,2.00
2022-10-22T09:50:29.299Z,2.08
2022-10-22T09:53:00.626Z,2.70
2022-10-22T09:55:27.062Z,2.17
2022-10-22T09:57:54.708Z,2.40
2022-10-22T10:00:21.458Z,2.33
2022-10-22T10:02:47.767Z,2.53
2022-10-22T10:05:21.289Z,2.33
2022-10-22T10:07:48.086Z,2.05
2022-10-22T10:10:21.173Z,2.47
2022-10-22T10:12:47.406Z,2.60
2022-10-22T10:15:20.106Z,2.53
2022-10-22T10:17:48.698Z,2.38
2022-10-22T10:20:24.071Z,2.25
2022-10-22T10:23:09.497Z,2.55
2022-10-22T10:25:35.695Z,2.63
2022-10-22T10:28:25.758Z,2.28
2022-10-22T10:31:02.622Z,1.80
2022-10-22T10:33:29.028Z,1.80
2022-10-22T10:36:03.794Z,2.20
2022-10-22T10:38:31.268Z,2.38
2022-10-22T10:41:02.864Z,2.10
2022-10-22T10:43:35.198Z,2.13
2022-10-22T10:46:20.334Z,2.00
2022-10-22T10:48:54.695Z,2.05
2022-10-22T10:51:30.040Z,2.42
2022-10-22T10:54:15.190Z,2.03
2022-10-22T10:56:53.007Z,1.60
2022-10-22T10:59:30.522Z,2.20
2022-10-22T11:02:15.594Z,1.73
2022-10-22T11:04:47.936Z,1.88
2022-10-22T11:07:33.582Z,1.65
2022-10-22T11:10:03.191Z,2.05
2022-10-22T11:12:39.639Z,2.13
2022-10-22T11:15:24.874Z,1.55
2022-10-22T11:17:52.802Z,1.77
2022-10-22T11:20:24.050Z,2.03
2022-10-22T11:23:17.601Z,1.77
2022-10-22T11:25:43.342Z,1.40
2022-10-22T11:28:13.034Z,1.95
2022-10-22T11:30:40.924Z,2.07
2022-10-22T11:33:09.858Z,1.92
2022-10-22T11:35:39.264Z,2.05
2022-10-22T11:38:06.404Z,1.85
2022-10-22T11:40:35.744Z,1.58
2022-10-22T11:43:06.423Z,1.77
2022-10-22T11:45:40.773Z,1.95
2022-10-22T11:48:10.034Z,1.73
2022-10-22T11:50:54.982Z,1.85
2022-10-22T11:53:38.756Z,2.08
2022-10-22T11:56:05.004Z,1.70
2022-10-22T11:58:50.835Z,2.15
2022-10-22T12:01:52.223Z,1.90
2022-10-22T12:04:20.613Z,1.90
2022-10-22T12:07:01.215Z,1.70
2022-10-22T12:12:21.721Z,2.15
2022-10-22T12:14:57.750Z,1.95
2022-10-22T12:17:35.703Z,1.90
2022-10-22T12:20:11.824Z,1.85
2022-10-22T12:22:38.752Z,1.95
2022-10-22T12:25:30.053Z,2.13
2022-10-22T12:28:11.490Z,2.25
2022-10-22T12:31:09.202Z,2.10
2022-10-22T12:33:42.955Z,2.08
2022-10-22T12:36:22.662Z,1.95
2022-10-22T12:38:57.313Z,1.50
2022-10-22T12:41:37.537Z,1.95
2022-10-22T12:44:12.751Z,2.03
2022-10-22T12:46:48.023Z,1.50
2022-10-22T12:49:28.003Z,1.90
2022-10-22T12:52:04.302Z,1.77
2022-10-22T12:54:36.668Z,2.38
2022-10-22T12:57:12.464Z,2.13
2022-10-22T12:59:53.060Z,2.63
2022-10-22T13:02:43.251Z,1.95
2022-10-22T13:05:19.023Z,2.63
2022-10-22T13:07:58.450Z,2.05
2022-10-22T13:10:32.273Z,1.85
2022-10-22T13:15:48.177Z,2.28
2022-10-22T13:18:26.401Z,2.15
2022-10-22T13:21:19.915Z,2.08
2022-10-22T13:24:03.570Z,2.20
2022-10-22T13:26:40.040Z,2.47
2022-10-22T13:29:16.602Z,2.65
2022-10-22T13:31:59.930Z,2.83
2022-10-22T13:34:35.262Z,2.15
2022-10-22T13:37:03.208Z,2.60
2022-10-22T13:39:30.749Z,2.58
2022-10-22T13:41:58.413Z,2.60
2022-10-22T13:44:32.074Z,2.67
2022-10-22T13:47:06.418Z,2.38
2022-10-22T13:50:04.702Z,2.25
2022-10-22T13:52:49.129Z,2.70
2022-10-22T13:55:44.558Z,2.70
2022-10-22T13:58:25.527Z,2.60
2022-10-22T14:01:11.648Z,3.58
2022-10-22T14:03:47.875Z,2.78
2022-10-22T14:06:22.533Z,2.50
2022-10-22T14:09:00.583Z,3.00
2022-10-22T14:11:32.901Z,2.92
2022-10-22T14:14:05.302Z,2.30
2022-10-22T14:16:36.371Z,2.97
2022-10-22T14:19:07.693Z,2.80
2022-10-22T14:21:40.331Z,3.47
2022-10-22T14:24:17.933Z,2.95
2022-10-22T14:27:00.030Z,2.92
2022-10-22T14:29:44.882Z,2.35
2022-10-22T14:32:28.017Z,2.70
2022-10-22T14:35:10.958Z,3.88
2022-10-22T14:37:53.032Z,2.75
2022-10-22T14:40:58.019Z,3.58
2022-10-22T14:43:35.361Z,2.72
2022-10-22T14:46:29.698Z,2.80
2022-10-22T14:49:07.012Z,2.38
2022-10-22T14:51:47.949Z,2.40
2022-10-22T14:54:20.376Z,3.00
2022-10-22T14:59:29.074Z,2.90
2022-10-22T15:01:55.320Z,2.60
2022-10-22T15:04:21.590Z,2.58
2022-10-22T15:06:47.843Z,2.30
2022-10-22T15:09:14.165Z,2.45
2022-10-22T15:11:41.098Z,2.40
2022-10-22T15:14:07.968Z,3.20
2022-10-22T15:16:34.321Z,2.65
2022-10-22T15:19:00.917Z,3.45
2022-10-22T15:21:27.397Z,3.10
2022-10-22T15:23:53.763Z,3.03
2022-10-22T15:26:20.135Z,3.17
2022-10-22T15:28:46.381Z,3.03
2022-10-22T15:31:14.139Z,2.58
2022-10-22T15:33:41.004Z,2.88
2022-10-22T15:36:15.252Z,2.70
2022-10-22T15:38:41.558Z,2.50
2022-10-22T15:41:09.972Z,2.50
2022-10-22T15:43:36.413Z,2.65
2022-10-22T15:46:09.001Z,3.00
2022-10-22T15:48:35.560Z,2.33
2022-10-22T15:51:07.014Z,2.17
2022-10-22T15:53:33.273Z,2.70
2022-10-22T15:55:59.501Z,2.20
2022-10-22T15:58:25.806Z,2.40
2022-10-22T16:00:52.069Z,2.67
2022-10-22T16:03:18.395Z,2.10
2022-10-22T16:05:54.469Z,2.58
2022-10-22T16:08:21.068Z,2.58
2022-10-22T16:10:48.426Z,2.50
2022-10-22T16:13:15.451Z,1.98
2022-10-22T16:15:41.685Z,2.65
2022-10-22T16:18:07.925Z,2.60
2022-10-22T16:20:38.697Z,2.33
2022-10-22T16:23:05.133Z,2.35
2022-10-22T16:25:36.954Z,2.30
2022-10-22T16:28:03.233Z,3.17
2022-10-22T16:30:29.453Z,4.85
2022-10-22T16:32:55.673Z,4.40
2022-10-22T16:35:21.930Z,4.53
2022-10-22T16:37:48.168Z,3.90
2022-10-22T16:40:14.398Z,8.15
2022-10-22T16:42:41.931Z,6.90
2022-10-22T16:45:08.453Z,4.50
2022-10-22T16:47:34.747Z,3.78
2022-10-22T16:50:01.021Z,3.95
2022-10-22T16:52:27.276Z,3.40
2022-10-22T16:54:53.510Z,2.75
2022-10-22T16:57:19.758Z,3.30
2022-10-22T16:59:47.297Z,3.78
2022-10-22T17:02:16.331Z,3.50
2022-10-22T17:04:42.570Z,3.95
2022-10-22T17:07:08.828Z,4.53
2022-10-22T17:09:35.057Z,5.68
2022-10-22T17:12:01.337Z,5.22
2022-10-22T17:14:27.571Z,5.60
2022-10-22T17:16:53.988Z,5.28
2022-10-22T17:19:43.686Z,4.68
2022-10-22T17:22:11.843Z,4.55
2022-10-22T17:24:43.517Z,4.78
2022-10-22T17:27:12.606Z,4.45
2022-10-22T17:29:39.018Z,4.00
2022-10-22T17:32:05.264Z,4.53
2022-10-22T17:34:33.161Z,5.18
2022-10-22T17:37:00.191Z,7.38
2022-10-22T17:39:26.694Z,6.85
2022-10-22T17:41:53.041Z,6.43
2022-10-22T17:44:19.405Z,5.63
2022-10-22T17:46:45.750Z,4.53
2022-10-22T17:49:17.134Z,4.55
2022-10-22T17:51:43.389Z,4.65
2022-10-22T17:54:10.320Z,4.40
2022-10-22T17:56:38.771Z,4.15
2022-10-22T17:59:05.067Z,4.72
2022-10-22T18:01:32.846Z,4.07
2022-10-22T18:04:00.168Z,4.25
2022-10-22T18:06:26.441Z,3.95
2022-10-22T18:11:25.397Z,4.40
2022-10-22T18:13:52.462Z,9.02
2022-10-22T18:16:19.034Z,9.27
2022-10-22T18:18:49.166Z,7.05
2022-10-22T18:21:15.831Z,5.75
2022-10-22T18:23:45.785Z,4.85
2022-10-22T18:26:12.511Z,3.80
2022-10-22T18:28:38.749Z,4.10
2022-10-22T18:31:06.905Z,4.35
2022-10-22T18:33:33.158Z,3.95
2022-10-22T18:36:03.678Z,4.22
2022-10-22T18:38:29.928Z,4.07
2022-10-22T18:40:56.171Z,4.20
2022-10-22T18:43:22.402Z,4.70
2022-10-22T18:45:48.745Z,4.50
2022-10-22T18:48:19.253Z,5.20
2022-10-22T18:50:46.991Z,4.30
2022-10-22T18:53:14.184Z,4.45
2022-10-22T18:55:40.624Z,4.40
2022-10-22T18:58:06.911Z,3.70
2022-10-22T19:00:34.526Z,4.13
2022-10-22T19:03:01.239Z,4.30
2022-10-22T19:05:27.478Z,4.40
2022-10-22T19:07:53.859Z,4.80
2022-10-22T19:10:20.394Z,5.15
2022-10-22T19:12:46.653Z,3.72
2022-10-22T19:15:12.913Z,3.85
2022-10-22T19:17:39.254Z,3.97
2022-10-22T19:20:05.975Z,4.35
2022-10-22T19:22:32.288Z,4.78
2022-10-22T19:24:58.854Z,8.00
2022-10-22T19:27:25.645Z,6.68
2022-10-22T19:29:51.909Z,6.93
2022-10-22T19:32:19.891Z,5.88
2022-10-22T19:34:46.848Z,6.50
2022-10-22T19:37:15.766Z,6.25
2022-10-22T19:39:42.117Z,6.80
2022-10-22T19:42:08.470Z,5.75
2022-10-22T19:44:34.958Z,6.25
2022-10-22T19:47:01.209Z,6.32
2022-10-22T19:49:27.458Z,5.75
2022-10-22T19:51:56.848Z,5.25
2022-10-22T19:54:23.087Z,5.43
2022-10-22T19:56:49.914Z,6.68
2022-10-22T19:59:16.731Z,5.60
2022-10-22T20:01:43.031Z,6.20
2022-10-22T20:04:13.751Z,6.20
2022-10-22T20:06:40.005Z,6.88
2022-10-22T20:09:06.468Z,6.40
2022-10-22T20:11:32.767Z,7.43
2022-10-22T20:13:59.265Z,7.50
2022-10-22T20:16:28.448Z,6.75
2022-10-22T20:18:55.709Z,6.80
2022-10-22T20:21:24.725Z,6.20
2022-10-22T20:23:52.580Z,6.40
2022-10-22T20:26:20.581Z,6.22
2022-10-22T20:28:46.954Z,6.40
2022-10-22T20:31:14.618Z,6.78
2022-10-22T20:33:40.960Z,6.75
2022-10-22T20:36:08.700Z,6.43
2022-10-22T20:38:38.159Z,6.90
2022-10-22T20:41:08.730Z,7.03
2022-10-22T20:43:35.002Z,8.07
2022-10-22T20:46:01.404Z,8.15
2022-10-22T20:48:31.102Z,10.43
2022-10-22T20:50:58.262Z,11.88
2022-10-22T20:53:24.588Z,12.75
2022-10-22T20:55:51.778Z,10.07
2022-10-22T20:58:18.034Z,7.88
2022-10-22T21:00:44.964Z,6.45
2022-10-22T21:03:11.650Z,5.30
2022-10-22T21:05:38.346Z,5.30
2022-10-22T21:08:06.949Z,4.63
2022-10-22T21:10:33.588Z,4.60
2022-10-22T21:13:00.314Z,5.13
2022-10-22T21:15:27.026Z,5.32
2022-10-22T21:17:53.367Z,4.85
2022-10-22T21:20:22.378Z,4.60
2022-10-22T21:22:51.368Z,5.18
2022-10-22T21:25:17.965Z,5.72
2022-10-22T21:27:44.220Z,6.75
2022-10-22T21:30:13.192Z,10.68
2022-10-22T21:32:39.936Z,8.10
2022-10-22T21:35:06.600Z,5.20
2022-10-22T21:37:35.108Z,3.55
2022-10-22T21:40:02.089Z,3.35
2022-10-22T21:42:28.471Z,3.13
2022-10-22T21:44:54.718Z,5.28
2022-10-22T21:47:20.988Z,5.22
2022-10-22T21:49:47.240Z,4.38
2022-10-22T21:52:13.492Z,2.65
2022-10-22T21:54:39.816Z,3.20
2022-10-22T21:57:06.166Z,2.80
2022-10-22T21:59:34.885Z,2.78
2022-10-22T22:02:04.910Z,3.20
2022-10-22T22:04:32.517Z,4.95
2022-10-22T22:06:58.866Z,4.30
2022-10-22T22:09:25.155Z,3.38
2022-10-22T22:11:51.421Z,3.17
2022-10-22T22:14:17.689Z,3.25
2022-10-22T22:16:43.945Z,3.28
2022-10-22T22:19:10.431Z,3.78
2022-10-22T22:21:39.240Z,4.40
2022-10-22T22:24:05.878Z,5.20
2022-10-22T22:26:32.341Z,5.57
2022-10-22T22:28:59.244Z,5.32
2022-10-22T22:31:26.818Z,7.43
2022-10-22T22:34:00.048Z,6.30
2022-10-22T22:36:26.293Z,6.88
2022-10-22T22:38:56.440Z,8.50
2022-10-22T22:41:24.168Z,6.88
2022-10-22T22:43:50.777Z,7.72
2022-10-22T22:46:17.328Z,8.30
2022-10-22T22:48:43.672Z,7.80
2022-10-22T22:51:10.163Z,8.40
2022-10-22T22:53:36.419Z,9.43
2022-10-22T22:56:06.868Z,12.13
2022-10-22T22:58:33.119Z,10.75
2022-10-22T23:01:29.663Z,9.50
2022-10-22T23:04:03.251Z,10.23
2022-10-22T23:06:30.996Z,10.20
2022-10-22T23:09:01.721Z,9.02
2022-10-22T23:13:55.873Z,9.30
2022-10-22T23:16:23.550Z,9.98
2022-10-22T23:18:50.285Z,8.50
2022-10-22T23:21:17.821Z,9.43
2022-10-22T23:23:44.844Z,9.32
2022-10-22T23:26:11.961Z,9.85
2022-10-22T23:28:38.296Z,9.88
2022-10-22T23:31:07.826Z,9.85
2022-10-22T23:33:34.532Z,10.02
2022-10-22T23:36:01.674Z,9.85
2022-10-22T23:38:28.253Z,10.18
2022-10-22T23:40:56.410Z,10.05
2022-10-22T23:43:26.310Z,10.48
2022-10-22T23:45:52.985Z,10.43
2022-10-22T23:48:20.580Z,10.52
2022-10-22T23:50:47.051Z,11.10
2022-10-22T23:53:13.437Z,11.63
2022-10-22T23:55:40.772Z,10.63
2022-10-22T23:58:07.272Z,10.35
